createdAt,value
2022-11-27T00:01:58.813Z,92.25
2022-11-27T00:07:00.254Z,91.65
2022-11-27T00:12:01.637Z,92.08
2022-11-27T00:17:03.003Z,92.08
2022-11-27T00:22:04.475Z,92.08
2022-11-27T00:27:05.920Z,91.80
2022-11-27T00:32:08.103Z,92.27
2022-11-27T00:37:09.511Z,91.72
2022-11-27T00:42:11.003Z,91.62
2022-11-27T00:47:12.387Z,91.04
2022-11-27T00:52:13.864Z,90.96
2022-11-27T00:57:15.250Z,91.16
2022-11-27T01:02:16.684Z,91.13
2022-11-27T01:07:18.109Z,90.47
2022-11-27T01:12:19.544Z,90.69
2022-11-27T01:17:20.939Z,91.63
2022-11-27T01:22:22.640Z,91.57
2022-11-27T01:27:24.066Z,91.12
2022-11-27T01:32:26.119Z,90.90
2022-11-27T01:37:27.622Z,90.59
2022-11-27T01:42:28.981Z,90.02
2022-11-27T01:47:43.633Z,89.70
2022-11-27T01:52:50.126Z,88.76
2022-11-27T01:58:02.142Z,89.11
2022-11-27T02:03:04.324Z,89.50
2022-11-27T02:08:12.094Z,88.93
2022-11-27T02:13:23.351Z,88.42
2022-11-27T02:18:55.792Z,88.55
2022-11-27T02:24:46.795Z,88.17
2022-11-27T02:29:54.193Z,87.63
2022-11-27T02:35:06.371Z,88.25
2022-11-27T02:40:13.842Z,88.60
2022-11-27T02:45:21.450Z,89.01
2022-11-27T02:50:26.028Z,89.10
2022-11-27T02:55:32.263Z,88.32
2022-11-27T03:00:35.371Z,88.87
2022-11-27T03:05:39.582Z,89.68
2022-11-27T03:10:51.959Z,88.94
2022-11-27T03:16:02.507Z,88.34
2022-11-27T03:21:28.452Z,88.46
2022-11-27T03:26:30.808Z,88.38
2022-11-27T03:31:32.807Z,88.42
2022-11-27T03:36:34.268Z,88.09
2022-11-27T03:42:02.494Z,88.16
2022-11-27T03:47:41.875Z,87.83
2022-11-27T03:52:57.319Z,87.62
2022-11-27T03:58:08.545Z,88.47
2022-11-27T04:03:11.587Z,88.18
2022-11-27T04:08:12.971Z,88.23
2022-11-27T04:13:14.741Z,88.87
2022-11-27T04:18:16.114Z,88.72
2022-11-27T04:23:17.575Z,88.74
2022-11-27T04:28:19.083Z,88.41
2022-11-27T04:33:20.940Z,88.63
2022-11-27T04:38:23.586Z,88.63
2022-11-27T04:43:25.023Z,88.36
2022-11-27T04:48:26.391Z,88.81
2022-11-27T04:53:27.854Z,88.05
2022-11-27T04:58:29.247Z,88.97
2022-11-27T05:03:30.691Z,89.08
2022-11-27T05:08:33.290Z,88.10
2022-11-27T05:13:35.127Z,88.63
2022-11-27T05:18:36.595Z,88.46
2022-11-27T05:23:37.958Z,88.26
2022-11-27T05:28:39.320Z,87.85
2022-11-27T05:33:40.694Z,88.22
2022-11-27T05:38:42.118Z,87.96
2022-11-27T05:43:43.558Z,87.71
2022-11-27T05:48:44.922Z,87.98
2022-11-27T05:53:46.366Z,87.90
2022-11-27T05:58:48.545Z,88.19
2022-11-27T06:03:50.026Z,87.74
2022-11-27T06:08:51.518Z,87.96
2022-11-27T06:13:52.922Z,87.78
2022-11-27T06:18:55.961Z,88.25
2022-11-27T06:23:57.396Z,87.87
2022-11-27T06:29:00.975Z,87.97
2022-11-27T06:34:03.714Z,88.41
2022-11-27T06:39:06.582Z,88.13
2022-11-27T06:44:09.367Z,88.70
2022-11-27T06:49:12.746Z,88.35
2022-11-27T06:54:14.151Z,88.46
2022-11-27T06:59:16.265Z,88.89
2022-11-27T07:04:17.708Z,89.50
2022-11-27T07:09:19.086Z,89.14
2022-11-27T07:14:20.462Z,89.08
2022-11-27T07:19:21.825Z,89.18
2022-11-27T07:24:23.282Z,89.74
2022-11-27T07:29:24.707Z,90.37
2022-11-27T07:34:26.059Z,90.25
2022-11-27T07:39:54.116Z,89.87
2022-11-27T07:44:49.106Z,90.14
2022-11-27T07:49:50.499Z,89.76
2022-11-27T07:54:51.904Z,90.72
2022-11-27T07:59:53.963Z,90.23
2022-11-27T08:04:55.417Z,90.74
2022-11-27T08:10:00.295Z,91.35
2022-11-27T08:15:04.471Z,90.98
2022-11-27T08:20:07.171Z,90.97
2022-11-27T08:25:09.092Z,91.46
2022-11-27T08:30:10.680Z,90.97
2022-11-27T08:35:12.214Z,90.64
2022-11-27T08:40:14.021Z,91.33
2022-11-27T08:45:15.536Z,91.88
2022-11-27T08:50:17.064Z,91.85
2022-11-27T08:55:18.438Z,91.99
2022-11-27T09:00:24.929Z,92.17
2022-11-27T09:05:29.934Z,91.81
2022-11-27T09:10:31.336Z,92.06
2022-11-27T09:15:32.742Z,92.43
2022-11-27T09:20:34.190Z,92.16
2022-11-27T09:25:39.041Z,92.24
2022-11-27T09:30:40.442Z,92.48
2022-11-27T09:35:41.910Z,92.35
2022-11-27T09:40:52.106Z,92.74
2022-11-27T09:45:58.501Z,92.74
2022-11-27T09:51:02.361Z,93.03
2022-11-27T09:56:06.792Z,92.79
2022-11-27T10:01:16.174Z,93.09
2022-11-27T10:06:23.113Z,93.20
2022-11-27T10:11:33.947Z,93.36
2022-11-27T10:16:45.648Z,93.23
2022-11-27T10:21:55.455Z,93.27
2022-11-27T10:26:59.179Z,93.42
2022-11-27T10:32:52.971Z,93.45
2022-11-27T10:38:06.430Z,93.50
2022-11-27T10:43:18.919Z,93.57
2022-11-27T10:48:21.028Z,93.53
2022-11-27T10:53:37.190Z,93.42
2022-11-27T10:58:46.996Z,93.44
2022-11-27T11:03:48.747Z,94.34
2022-11-27T11:09:24.224Z,93.54
2022-11-27T11:14:26.954Z,93.70
2022-11-27T11:19:38.934Z,93.02
2022-11-27T11:24:46.243Z,93.06
2022-11-27T11:29:55.206Z,93.57
2022-11-27T11:35:01.493Z,93.59
2022-11-27T11:40:09.777Z,93.64
2022-11-27T11:45:13.354Z,94.44
2022-11-27T11:50:25.336Z,94.61
2022-11-27T11:55:35.483Z,93.85
2022-11-27T12:01:26.136Z,93.44
2022-11-27T12:06:24.427Z,93.73
2022-11-27T12:11:42.333Z,93.64
2022-11-27T12:17:01.478Z,93.58
2022-11-27T12:22:15.018Z,93.04
2022-11-27T12:27:16.331Z,93.48
2022-11-27T12:32:52.042Z,92.72
2022-11-27T12:38:22.296Z,93.92
2022-11-27T12:43:24.992Z,93.39
2022-11-27T12:48:42.351Z,92.68
2022-11-27T12:53:49.227Z,92.62
2022-11-27T12:58:59.047Z,92.70
2022-11-27T13:04:29.120Z,92.13
2022-11-27T13:09:45.585Z,92.46
2022-11-27T13:14:55.044Z,92.32
2022-11-27T13:19:56.791Z,92.28
2022-11-27T13:25:01.644Z,91.00
2022-11-27T13:30:06.802Z,87.82
2022-11-27T13:35:21.802Z,88.62
2022-11-27T13:40:31.559Z,88.71
2022-11-27T13:45:36.905Z,90.35
2022-11-27T13:50:45.835Z,90.78
2022-11-27T13:55:56.646Z,90.22
2022-11-27T14:00:58.765Z,90.76
2022-11-27T14:06:00.216Z,90.64
2022-11-27T14:11:06.434Z,90.16
2022-11-27T14:16:30.248Z,89.95
2022-11-27T14:21:42.697Z,90.14
2022-11-27T14:26:44.234Z,89.69
2022-11-27T14:31:45.724Z,89.76
2022-11-27T14:36:52.040Z,89.91
2022-11-27T14:42:01.556Z,89.57
2022-11-27T14:47:06.568Z,89.84
2022-11-27T14:52:14.726Z,89.47
2022-11-27T14:57:35.153Z,89.19
2022-11-27T15:02:36.812Z,88.99
2022-11-27T15:07:45.400Z,88.80
2022-11-27T15:12:49.721Z,88.88
2022-11-27T15:18:17.923Z,88.19
2022-11-27T15:23:27.751Z,88.79
2022-11-27T15:28:32.633Z,87.98
2022-11-27T15:33:34.233Z,88.25
2022-11-27T15:38:35.624Z,88.44
2022-11-27T15:43:37.014Z,88.12
2022-11-27T15:48:39.314Z,88.28
2022-11-27T15:53:40.876Z,88.31
2022-11-27T15:58:43.292Z,88.07
2022-11-27T16:03:44.770Z,88.62
2022-11-27T16:08:46.142Z,88.43
2022-11-27T16:13:47.649Z,87.96
2022-11-27T16:18:49.083Z,87.96
2022-11-27T16:23:50.503Z,88.28
2022-11-27T16:28:52.047Z,87.62
2022-11-27T16:33:54.009Z,87.33
2022-11-27T16:38:58.356Z,87.20
2022-11-27T16:43:59.765Z,87.22
2022-11-27T16:49:01.344Z,87.38
2022-11-27T16:54:06.224Z,87.78
2022-11-27T16:59:10.571Z,87.77
2022-11-27T17:04:18.648Z,87.65
2022-11-27T17:09:22.424Z,87.63
2022-11-27T17:14:26.684Z,87.84
2022-11-27T17:19:29.942Z,88.54
2022-11-27T17:24:31.709Z,88.39
2022-11-27T17:29:37.642Z,88.11
2022-11-27T17:34:39.942Z,88.48
2022-11-27T17:39:43.461Z,88.54
2022-11-27T17:44:45.695Z,89.16
2022-11-27T17:49:47.082Z,88.72
2022-11-27T17:54:48.562Z,89.27
2022-11-27T17:59:50.258Z,89.69
2022-11-27T18:04:52.488Z,89.42
2022-11-27T18:10:00.627Z,89.69
2022-11-27T18:27:35.914Z,88.46
2022-11-27T18:32:38.181Z,88.38
2022-11-27T18:37:39.598Z,88.47
2022-11-27T18:42:40.963Z,88.67
2022-11-27T18:47:42.339Z,88.65
2022-11-27T18:52:43.730Z,88.96
2022-11-27T18:57:46.235Z,88.70
2022-11-27T19:02:49.977Z,88.28
2022-11-27T19:07:53.488Z,88.47
2022-11-27T19:12:59.080Z,88.13
2022-11-27T19:18:01.160Z,88.45
2022-11-27T19:28:45.574Z,88.87
2022-11-27T19:34:15.992Z,88.38
2022-11-27T19:39:24.151Z,87.96
2022-11-27T19:44:27.861Z,88.39
2022-11-27T19:49:35.611Z,88.39
2022-11-27T19:54:37.349Z,88.17
2022-11-27T19:59:40.111Z,88.26
2022-11-27T20:04:43.850Z,88.45
2022-11-27T20:09:45.585Z,88.19
2022-11-27T20:14:47.031Z,88.75
2022-11-27T20:19:48.742Z,87.95
2022-11-27T20:25:11.640Z,88.35
2022-11-27T20:30:12.747Z,88.57
2022-11-27T20:35:15.128Z,87.65
2022-11-27T20:40:16.927Z,88.13
2022-11-27T20:45:20.521Z,88.17
2022-11-27T20:50:23.463Z,88.16
2022-11-27T20:55:25.028Z,88.68
2022-11-27T21:00:26.914Z,87.97
2022-11-27T21:05:28.331Z,88.13
2022-11-27T21:10:29.873Z,88.05
2022-11-27T21:15:31.307Z,87.94
2022-11-27T21:20:32.847Z,88.01
2022-11-27T21:25:34.336Z,88.16
2022-11-27T21:30:35.843Z,87.79
2022-11-27T21:35:40.308Z,88.01
2022-11-27T21:40:42.300Z,87.71
2022-11-27T21:45:43.733Z,88.08
2022-11-27T21:50:45.252Z,88.83
2022-11-27T21:55:46.691Z,88.40
2022-11-27T22:00:51.560Z,88.42
2022-11-27T22:06:01.483Z,88.33
2022-11-27T22:11:07.489Z,88.35
2022-11-27T22:16:15.427Z,88.22
2022-11-27T22:21:17.558Z,88.64
2022-11-27T22:26:21.039Z,89.37
2022-11-27T22:31:30.165Z,88.74
2022-11-27T22:36:35.478Z,88.85
2022-11-27T22:41:40.417Z,88.67
2022-11-27T22:46:43.401Z,88.96
2022-11-27T22:51:46.114Z,89.13
2022-11-27T22:56:48.912Z,88.74
2022-11-27T23:01:50.284Z,88.32
2022-11-27T23:06:51.853Z,88.71
2022-11-27T23:11:53.407Z,88.48
2022-11-27T23:16:55.968Z,89.23
2022-11-27T23:21:57.517Z,88.91
2022-11-27T23:26:58.891Z,89.00
2022-11-27T23:32:00.997Z,88.75
2022-11-27T23:37:02.620Z,88.68
2022-11-27T23:42:04.437Z,88.79
2022-11-27T23:47:06.271Z,88.51
2022-11-27T23:52:09.344Z,89.39
2022-11-27T23:57:13.316Z,89.07
